createdAt,value
2019-02-17T00:01:39.104Z,25.93
2019-02-17T00:04:41.028Z,27.33
2019-02-17T00:07:42.979Z,28.13
2019-02-17T00:10:44.910Z,26.83
2019-02-17T00:13:46.883Z,26.20
2019-02-17T00:16:48.785Z,25.97
2019-02-17T00:19:50.733Z,29.60
2019-02-17T00:22:52.709Z,26.80
2019-02-17T00:25:54.687Z,27.90
2019-02-17T00:28:59.338Z,26.30
2019-02-17T00:32:00.505Z,23.33
2019-02-17T00:35:02.559Z,40.53
2019-02-17T00:38:04.517Z,32.63
2019-02-17T00:41:06.597Z,27.77
2019-02-17T00:44:08.557Z,28.87
2019-02-17T00:47:10.498Z,28.37
2019-02-17T00:50:12.429Z,29.13
2019-02-17T00:53:14.343Z,26.90
2019-02-17T00:56:16.352Z,31.63
2019-02-17T00:59:18.752Z,30.97
2019-02-17T01:02:20.735Z,26.37
2019-02-17T01:05:22.723Z,23.77
2019-02-17T01:08:24.674Z,26.63
2019-02-17T01:11:26.582Z,25.23
2019-02-17T01:14:28.564Z,34.43
2019-02-17T01:17:30.526Z,32.57
2019-02-17T01:20:32.521Z,29.93
2019-02-17T01:23:34.514Z,48.00
2019-02-17T01:26:36.475Z,43.10
2019-02-17T01:29:38.428Z,26.73
2019-02-17T01:32:40.454Z,27.57
2019-02-17T01:35:42.391Z,35.40
2019-02-17T01:38:44.391Z,30.17
2019-02-17T01:41:46.396Z,31.30
2019-02-17T01:44:48.359Z,29.00
2019-02-17T01:47:50.316Z,32.63
2019-02-17T01:50:52.331Z,35.70
2019-02-17T01:53:54.394Z,28.17
2019-02-17T01:56:56.353Z,25.70
2019-02-17T01:59:58.338Z,29.90
2019-02-17T02:03:00.439Z,32.70
2019-02-17T02:06:02.454Z,35.23
2019-02-17T02:09:07.865Z,26.60
2019-02-17T02:12:09.798Z,25.57
2019-02-17T02:15:11.945Z,26.10
2019-02-17T02:18:14.235Z,34.57
2019-02-17T02:21:16.103Z,34.87
2019-02-17T02:24:18.072Z,35.13
2019-02-17T02:27:20.192Z,104.13
2019-02-17T02:30:22.152Z,49.93
2019-02-17T02:33:23.997Z,144.07
2019-02-17T02:36:25.949Z,138.97
2019-02-17T02:39:27.825Z,98.50
2019-02-17T02:42:29.749Z,96.43
2019-02-17T02:45:31.641Z,61.63
2019-02-17T02:48:33.545Z,43.33
2019-02-17T02:51:36.793Z,49.27
2019-02-17T02:54:38.831Z,54.47
2019-02-17T02:57:40.909Z,53.47
2019-02-17T03:00:42.910Z,61.43
2019-02-17T03:03:46.083Z,89.63
2019-02-17T03:06:53.137Z,110.83
2019-02-17T03:09:55.016Z,87.23
2019-02-17T03:12:56.975Z,64.77
2019-02-17T03:15:58.815Z,55.47
2019-02-17T03:19:00.814Z,53.00
2019-02-17T03:22:02.782Z,67.80
2019-02-17T03:25:05.713Z,65.87
2019-02-17T03:28:07.748Z,63.00
2019-02-17T03:31:09.785Z,60.50
2019-02-17T03:34:11.830Z,51.70
2019-02-17T03:37:13.790Z,55.90
2019-02-17T03:40:15.689Z,55.60
2019-02-17T03:43:17.663Z,59.40
2019-02-17T03:46:19.614Z,52.57
2019-02-17T03:49:21.559Z,54.90
2019-02-17T03:52:23.443Z,54.67
2019-02-17T03:55:25.382Z,44.80
2019-02-17T03:58:27.357Z,41.43
2019-02-17T04:01:29.291Z,48.30
2019-02-17T04:04:31.359Z,34.57
2019-02-17T04:07:33.294Z,33.20
2019-02-17T04:10:35.263Z,31.37
2019-02-17T04:13:38.508Z,31.40
2019-02-17T04:16:40.477Z,31.73
2019-02-17T04:19:42.422Z,34.80
2019-02-17T04:22:44.363Z,31.97
2019-02-17T04:25:46.321Z,36.03
2019-02-17T04:28:48.314Z,33.57
2019-02-17T04:31:50.383Z,41.80
2019-02-17T04:34:52.322Z,56.27
2019-02-17T04:37:54.215Z,42.93
2019-02-17T04:40:56.186Z,39.73
2019-02-17T04:43:58.178Z,38.27
2019-02-17T04:47:00.060Z,37.50
2019-02-17T04:50:01.982Z,46.37
2019-02-17T04:53:03.948Z,89.00
2019-02-17T04:56:05.921Z,67.03
2019-02-17T04:59:07.913Z,46.47
2019-02-17T05:02:09.789Z,35.33
2019-02-17T05:05:11.838Z,37.43
2019-02-17T05:08:13.728Z,33.43
2019-02-17T05:11:15.679Z,34.13
2019-02-17T05:14:17.631Z,29.50
2019-02-17T05:17:20.300Z,29.17
2019-02-17T05:20:22.497Z,26.17
2019-02-17T05:23:24.512Z,25.73
2019-02-17T05:26:26.508Z,26.27
2019-02-17T05:29:28.508Z,26.37
2019-02-17T05:32:31.512Z,29.60
2019-02-17T05:35:33.439Z,33.77
2019-02-17T05:38:35.422Z,30.47
2019-02-17T05:41:38.347Z,29.37
2019-02-17T05:44:40.356Z,28.77
2019-02-17T05:47:42.292Z,27.97
2019-02-17T05:50:44.304Z,26.77
2019-02-17T05:53:46.332Z,27.03
2019-02-17T05:56:48.236Z,24.70
2019-02-17T05:59:50.243Z,27.40
2019-02-17T06:02:52.239Z,28.23
2019-02-17T06:05:54.203Z,27.97
2019-02-17T06:08:56.178Z,27.40
2019-02-17T06:11:58.103Z,27.50
2019-02-17T06:15:00.231Z,30.63
2019-02-17T06:18:02.341Z,31.87
2019-02-17T06:21:04.314Z,29.63
2019-02-17T06:24:06.213Z,30.63
2019-02-17T06:27:08.192Z,32.83
2019-02-17T06:30:10.151Z,30.10
2019-02-17T06:33:12.102Z,28.43
2019-02-17T06:36:14.282Z,29.23
2019-02-17T06:39:16.221Z,48.27
2019-02-17T06:42:18.153Z,36.50
2019-02-17T06:45:20.075Z,27.30
2019-02-17T06:48:21.975Z,25.23
2019-02-17T06:51:23.900Z,26.20
2019-02-17T06:54:25.770Z,28.50
2019-02-17T06:57:29.507Z,26.30
2019-02-17T07:00:39.168Z,25.83
2019-02-17T07:03:41.145Z,24.90
2019-02-17T07:06:45.125Z,26.10
2019-02-17T07:09:47.141Z,24.67
2019-02-17T07:12:49.013Z,23.63
2019-02-17T07:15:51.071Z,22.27
2019-02-17T07:18:52.942Z,21.10
2019-02-17T07:21:54.913Z,19.80
2019-02-17T07:24:57.119Z,20.70
2019-02-17T07:27:59.079Z,21.93
2019-02-17T07:31:01.048Z,22.87
2019-02-17T07:34:03.012Z,25.03
2019-02-17T07:37:05.941Z,26.20
2019-02-17T07:40:08.149Z,27.87
2019-02-17T07:43:11.963Z,29.63
2019-02-17T07:46:13.920Z,26.90
2019-02-17T07:49:15.773Z,24.27
2019-02-17T07:52:17.720Z,22.30
2019-02-17T07:55:19.634Z,22.90
2019-02-17T07:58:21.558Z,25.40
2019-02-17T08:01:23.579Z,25.83
2019-02-17T08:04:25.481Z,26.73
2019-02-17T08:07:27.527Z,27.20
2019-02-17T08:10:29.398Z,28.83
2019-02-17T08:13:31.685Z,29.77
2019-02-17T08:16:33.560Z,27.00
2019-02-17T08:19:35.537Z,27.83
2019-02-17T08:22:37.428Z,26.13
2019-02-17T08:25:39.383Z,25.67
2019-02-17T08:28:42.683Z,24.17
2019-02-17T08:31:54.943Z,25.00
2019-02-17T08:34:49.122Z,22.63
2019-02-17T08:37:51.088Z,23.50
2019-02-17T08:40:53.121Z,23.40
2019-02-17T08:43:55.210Z,23.00
2019-02-17T08:46:57.087Z,22.23
2019-02-17T08:49:59.040Z,22.70
2019-02-17T08:53:00.916Z,24.43
2019-02-17T08:56:02.897Z,25.92
2019-02-17T08:59:04.787Z,25.40
2019-02-17T09:02:06.860Z,23.87
2019-02-17T09:05:08.770Z,23.47
2019-02-17T09:08:10.811Z,23.43
2019-02-17T09:11:12.739Z,21.50
2019-02-17T09:14:14.749Z,22.53
2019-02-17T09:17:16.680Z,27.00
2019-02-17T09:20:18.711Z,27.53
2019-02-17T09:23:20.646Z,29.17
2019-02-17T09:26:22.628Z,29.77
2019-02-17T09:29:24.603Z,29.63
2019-02-17T09:32:26.641Z,27.37
2019-02-17T09:35:28.602Z,26.73
2019-02-17T09:38:30.565Z,24.83
2019-02-17T09:41:32.479Z,23.23
2019-02-17T09:44:34.470Z,21.30
2019-02-17T09:47:36.343Z,21.67
2019-02-17T09:50:38.260Z,22.50
2019-02-17T09:53:40.215Z,20.87
2019-02-17T09:56:42.244Z,21.10
2019-02-17T09:59:44.173Z,23.17
2019-02-17T10:02:46.231Z,21.03
2019-02-17T10:05:48.127Z,21.93
2019-02-17T10:08:50.186Z,21.53
2019-02-17T10:11:52.120Z,21.87
2019-02-17T10:14:54.086Z,25.40
2019-02-17T10:17:56.382Z,23.20
2019-02-17T10:20:58.309Z,19.97
2019-02-17T10:24:00.195Z,18.03
2019-02-17T10:27:02.151Z,17.17
2019-02-17T10:30:18.287Z,18.03
2019-02-17T10:33:21.342Z,16.13
2019-02-17T10:36:23.290Z,15.73
2019-02-17T10:39:25.240Z,17.03
2019-02-17T10:42:27.156Z,15.93
2019-02-17T10:45:29.123Z,16.63
2019-02-17T10:48:31.197Z,13.60
2019-02-17T10:51:33.179Z,15.53
2019-02-17T10:54:35.123Z,16.80
2019-02-17T10:57:37.122Z,15.47
2019-02-17T11:00:39.093Z,15.90
2019-02-17T11:03:44.811Z,15.30
2019-02-17T11:06:46.842Z,13.73
2019-02-17T11:09:48.989Z,15.60
2019-02-17T11:12:50.934Z,17.13
2019-02-17T11:15:52.871Z,16.03
2019-02-17T11:18:54.888Z,17.13
2019-02-17T11:21:56.859Z,17.97
2019-02-17T11:24:58.818Z,15.33
2019-02-17T11:28:00.751Z,16.57
2019-02-17T11:31:03.239Z,17.40
2019-02-17T11:34:05.270Z,15.50
2019-02-17T11:37:07.311Z,19.17
2019-02-17T11:40:11.255Z,16.43
2019-02-17T11:43:13.159Z,17.17
2019-02-17T11:46:15.161Z,15.33
2019-02-17T11:49:17.059Z,16.10
2019-02-17T11:52:19.089Z,16.37
2019-02-17T11:55:22.751Z,16.93
2019-02-17T11:58:25.053Z,17.63
2019-02-17T12:01:26.995Z,17.17
2019-02-17T12:04:29.016Z,16.47
2019-02-17T12:07:30.931Z,16.40
2019-02-17T12:10:32.930Z,14.97
2019-02-17T12:13:34.870Z,15.87
2019-02-17T12:16:37.406Z,16.27
2019-02-17T12:19:39.558Z,15.93
2019-02-17T12:22:42.807Z,15.33
2019-02-17T12:26:01.693Z,16.93
2019-02-17T12:29:05.681Z,15.13
2019-02-17T12:32:09.493Z,16.73
2019-02-17T12:35:11.490Z,15.97
2019-02-17T12:38:13.463Z,14.20
2019-02-17T12:41:15.604Z,14.60
2019-02-17T12:44:17.562Z,15.03
2019-02-17T12:47:19.586Z,16.37
2019-02-17T12:50:21.579Z,15.60
2019-02-17T12:53:23.633Z,17.87
2019-02-17T12:56:25.658Z,15.13
2019-02-17T12:59:27.769Z,15.60
2019-02-17T13:02:29.703Z,14.53
2019-02-17T13:05:31.737Z,15.03
2019-02-17T13:08:33.713Z,14.50
2019-02-17T13:11:35.799Z,13.60
2019-02-17T13:14:37.729Z,14.23
2019-02-17T13:17:39.866Z,13.50
2019-02-17T13:20:41.852Z,15.37
2019-02-17T13:23:43.827Z,14.90
2019-02-17T13:26:45.805Z,13.40
2019-02-17T13:29:47.755Z,18.27
2019-02-17T13:32:49.767Z,17.33
2019-02-17T13:35:51.835Z,14.57
2019-02-17T13:38:53.799Z,16.40
2019-02-17T13:41:55.825Z,15.50
2019-02-17T13:44:57.951Z,15.53
2019-02-17T13:48:00.124Z,15.57
2019-02-17T13:51:02.021Z,16.93
2019-02-17T13:54:03.953Z,15.83
2019-02-17T13:57:06.004Z,15.40
2019-02-17T14:00:17.547Z,14.50
2019-02-17T14:03:19.530Z,18.00
2019-02-17T14:06:21.548Z,15.80
2019-02-17T14:09:23.644Z,17.50
2019-02-17T14:12:25.814Z,15.10
2019-02-17T14:15:27.804Z,15.83
2019-02-17T14:18:29.798Z,16.90
2019-02-17T14:21:31.768Z,16.70
2019-02-17T14:24:33.716Z,16.40
2019-02-17T14:27:36.281Z,16.40
2019-02-17T14:30:38.277Z,15.50
2019-02-17T14:33:40.203Z,15.13
2019-02-17T14:36:42.262Z,17.07
2019-02-17T14:39:44.201Z,15.03
2019-02-17T14:42:46.583Z,15.80
2019-02-17T14:45:48.517Z,17.33
2019-02-17T14:48:50.721Z,16.17
2019-02-17T14:51:52.807Z,16.10
2019-02-17T14:54:54.825Z,15.97
2019-02-17T14:58:05.006Z,17.10
2019-02-17T15:01:00.742Z,15.70
2019-02-17T15:04:08.797Z,16.53
2019-02-17T15:07:06.603Z,16.47
2019-02-17T15:10:13.196Z,16.10
2019-02-17T15:13:15.476Z,17.23
2019-02-17T15:16:17.450Z,15.80
2019-02-17T15:19:19.514Z,15.43
2019-02-17T15:22:22.675Z,15.93
2019-02-17T15:25:24.702Z,15.20
2019-02-17T15:28:26.797Z,16.17
2019-02-17T15:31:30.885Z,17.03
2019-02-17T15:34:35.335Z,15.70
2019-02-17T15:37:37.142Z,18.07
2019-02-17T15:40:39.104Z,19.70
2019-02-17T15:43:41.359Z,25.23
2019-02-17T15:46:43.291Z,21.97
2019-02-17T15:49:45.307Z,20.20
2019-02-17T15:52:47.728Z,20.50
2019-02-17T15:55:49.740Z,20.83
2019-02-17T15:58:51.648Z,23.50
2019-02-17T16:01:53.676Z,22.17
2019-02-17T16:04:57.168Z,17.37
2019-02-17T16:07:59.264Z,16.83
2019-02-17T16:11:01.289Z,16.23
2019-02-17T16:14:03.368Z,15.33
2019-02-17T16:17:05.303Z,17.53
2019-02-17T16:20:10.322Z,21.47
2019-02-17T16:23:12.225Z,23.90
2019-02-17T16:26:14.332Z,18.70
2019-02-17T16:29:16.963Z,20.47
2019-02-17T16:32:18.929Z,21.00
2019-02-17T16:35:20.843Z,22.63
2019-02-17T16:38:24.852Z,21.70
2019-02-17T16:41:26.807Z,22.57
2019-02-17T16:44:29.559Z,27.77
2019-02-17T16:47:31.670Z,29.37
2019-02-17T16:50:33.726Z,33.87
2019-02-17T16:53:35.701Z,43.93
2019-02-17T16:56:37.731Z,47.50
2019-02-17T16:59:39.698Z,46.77
2019-02-17T17:02:41.609Z,65.47
2019-02-17T17:05:47.202Z,75.00
2019-02-17T17:08:49.215Z,53.43
2019-02-17T17:11:54.126Z,55.33
2019-02-17T17:14:56.617Z,48.70
2019-02-17T17:17:58.502Z,39.90
2019-02-17T17:21:00.969Z,35.60
2019-02-17T17:24:04.675Z,32.90
2019-02-17T17:27:09.039Z,27.43
2019-02-17T17:30:14.884Z,31.27
2019-02-17T17:33:19.566Z,34.03
2019-02-17T17:36:21.515Z,43.27
2019-02-17T17:39:23.572Z,41.73
2019-02-17T17:42:26.638Z,49.03
2019-02-17T17:45:30.665Z,55.37
2019-02-17T17:48:38.524Z,50.93
2019-02-17T17:51:40.783Z,43.57
2019-02-17T17:54:43.857Z,50.33
2019-02-17T17:57:46.213Z,50.30
2019-02-17T18:00:51.084Z,52.37
2019-02-17T18:03:53.083Z,43.60
2019-02-17T18:06:57.178Z,48.47
2019-02-17T18:10:01.523Z,49.50
2019-02-17T18:13:07.822Z,53.30
2019-02-17T18:16:12.523Z,52.73
2019-02-17T18:19:15.782Z,49.63
2019-02-17T18:22:20.083Z,49.53
2019-02-17T18:25:23.182Z,51.90
2019-02-17T18:28:26.894Z,52.10
2019-02-17T18:31:29.674Z,49.03
2019-02-17T18:34:32.056Z,46.07
2019-02-17T18:37:37.264Z,44.40
2019-02-17T18:40:44.983Z,46.80
2019-02-17T18:43:43.434Z,45.13
2019-02-17T18:46:45.393Z,47.07
2019-02-17T18:49:47.595Z,45.50
2019-02-17T18:52:51.200Z,47.80
2019-02-17T18:55:53.611Z,44.60
2019-02-17T18:58:55.524Z,51.60
2019-02-17T19:01:57.832Z,52.47
2019-02-17T19:05:01.824Z,57.37
2019-02-17T19:08:07.415Z,58.97
2019-02-17T19:11:09.320Z,62.80
2019-02-17T19:14:13.305Z,75.53
2019-02-17T19:17:15.944Z,75.37
2019-02-17T19:20:36.680Z,74.13
2019-02-17T19:23:38.623Z,65.63
2019-02-17T19:26:40.508Z,69.53
2019-02-17T19:29:43.429Z,60.97
2019-02-17T19:32:48.747Z,60.30
2019-02-17T19:35:50.626Z,64.17
2019-02-17T19:38:54.135Z,64.13
2019-02-17T19:41:56.021Z,74.13
2019-02-17T19:44:58.859Z,71.20
2019-02-17T19:48:01.144Z,73.43
2019-02-17T19:51:03.619Z,64.57
2019-02-17T19:54:06.121Z,67.60
2019-02-17T19:57:10.524Z,68.43
2019-02-17T20:00:14.224Z,67.60
2019-02-17T20:03:27.696Z,66.23
2019-02-17T20:06:29.580Z,63.60
2019-02-17T20:09:32.755Z,64.90
2019-02-17T20:12:34.693Z,62.80
2019-02-17T20:15:36.697Z,64.60
2019-02-17T20:18:43.567Z,63.70
2019-02-17T20:21:45.510Z,68.60
2019-02-17T20:24:47.444Z,66.97
2019-02-17T20:27:51.000Z,70.10
2019-02-17T20:30:52.968Z,70.33
2019-02-17T20:33:54.903Z,66.07
2019-02-17T20:36:57.227Z,62.77
2019-02-17T20:39:59.283Z,81.53
2019-02-17T20:43:01.495Z,153.33
2019-02-17T20:46:03.854Z,132.87
2019-02-17T20:49:07.467Z,99.77
2019-02-17T20:52:11.549Z,90.40
2019-02-17T20:55:13.762Z,87.87
2019-02-17T20:58:16.112Z,92.47
2019-02-17T21:01:18.065Z,94.03
2019-02-17T21:04:22.202Z,75.00
2019-02-17T21:07:24.108Z,70.87
2019-02-17T21:10:26.123Z,74.80
2019-02-17T21:13:29.840Z,75.47
2019-02-17T21:16:32.637Z,102.27
2019-02-17T21:19:36.474Z,86.27
2019-02-17T21:22:39.953Z,94.43
2019-02-17T21:25:41.908Z,87.73
2019-02-17T21:28:43.864Z,90.93
2019-02-17T21:31:45.765Z,88.33
2019-02-17T21:34:48.043Z,81.87
2019-02-17T21:37:49.941Z,84.83
2019-02-17T21:40:52.935Z,78.17
2019-02-17T21:43:54.844Z,81.30
2019-02-17T21:46:56.799Z,78.03
2019-02-17T21:49:58.702Z,79.77
2019-02-17T21:53:00.746Z,93.53
2019-02-17T21:56:02.751Z,81.77
2019-02-17T21:59:04.687Z,81.87
2019-02-17T22:02:06.573Z,102.20
2019-02-17T22:05:08.494Z,105.57
2019-02-17T22:08:10.411Z,100.47
2019-02-17T22:11:12.361Z,89.40
2019-02-17T22:14:14.317Z,86.77
2019-02-17T22:17:16.524Z,93.20
2019-02-17T22:20:18.557Z,95.83
2019-02-17T22:23:20.490Z,93.67
2019-02-17T22:26:22.440Z,99.53
2019-02-17T22:29:24.340Z,98.67
2019-02-17T22:32:26.613Z,94.53
2019-02-17T22:35:28.514Z,96.47
2019-02-17T22:38:30.427Z,109.43
2019-02-17T22:41:32.353Z,93.07
2019-02-17T22:44:34.223Z,88.73
2019-02-17T22:47:36.143Z,87.23
2019-02-17T22:50:38.123Z,80.83
2019-02-17T22:53:43.767Z,77.27
2019-02-17T22:56:44.003Z,79.53
2019-02-17T22:59:47.028Z,79.73
2019-02-17T23:02:48.992Z,76.47
2019-02-17T23:05:50.854Z,81.00
2019-02-17T23:08:52.814Z,82.73
2019-02-17T23:11:54.722Z,89.77
2019-02-17T23:14:56.630Z,95.90
2019-02-17T23:17:58.499Z,87.30
2019-02-17T23:21:00.413Z,91.10
2019-02-17T23:24:02.346Z,88.97
2019-02-17T23:27:04.341Z,90.63
2019-02-17T23:30:09.261Z,85.77
2019-02-17T23:33:11.209Z,86.10
2019-02-17T23:36:13.180Z,87.20
2019-02-17T23:39:15.128Z,86.17
2019-02-17T23:42:17.067Z,87.10
2019-02-17T23:45:19.026Z,87.40
2019-02-17T23:48:20.957Z,89.67
2019-02-17T23:51:22.943Z,85.33
2019-02-17T23:54:24.796Z,90.17
2019-02-17T23:57:26.703Z,89.80
